Date,TemperatureHighF,TemperatureAvgF,TemperatureLowF,DewpointHighF,DewpointAvgF,DewpointLowF,HumidityHigh,HumidityAvg,HumidityLow,PressureMaxIn,PressureMinIn,WindSpeedMaxMPH,WindSpeedAvgMPH,GustSpeedMaxMPH,PrecipitationSumIn
2013-9-1,-200,0,200,-100,-100,-100,0,0,100,30.02,29.94,6,1,7,0.01
2013-9-2,-200,0,200,-100,-100,-100,0,0,100,30.05,29.96,7,1,11,0.16
2013-9-3,-200,0,200,-100,-100,-100,0,0,100,30.04,29.95,6,2,12,0.01
2013-9-4,-200,0,200,-100,-100,-100,0,0,100,30.08,29.96,5,2,7,0.40
2013-9-5,-200,0,200,-100,-100,-100,0,0,100,30.09,30.01,6,3,9,0.00
2013-9-6,-200,0,200,-100,-100,-100,0,0,100,30.05,29.94,8,4,11,0.00
2013-9-7,-200,0,200,-100,-100,-100,0,0,100,30.00,29.92,11,2,12,0.18
2013-9-8,-200,0,200,-100,-100,-100,0,0,100,29.97,29.87,6,2,7,0.01
2013-9-9,-200,0,200,-100,-100,-100,0,0,100,30.02,29.91,8,4,14,0.00
2013-9-10,-200,0,200,-100,-100,-100,0,0,100,30.06,29.97,10,5,11,0.03
2013-9-11,-200,0,200,-100,-100,-100,0,0,100,30.08,29.98,9,4,13,1.07
2013-9-12,-200,0,200,-100,-100,-100,0,0,100,30.03,29.90,4,2,7,0.01
2013-9-13,-200,0,200,-100,-100,-100,0,0,100,29.92,29.82,5,2,8,0.00
2013-9-14,-200,0,200,-100,-100,-100,0,0,100,29.99,29.84,7,3,11,0.00
2013-9-15,-200,0,200,-100,-100,-100,0,0,100,30.06,29.94,10,4,19,0.20
2013-9-16,-200,0,200,-100,-100,-100,0,0,100,30.06,29.97,9,-18,11,0.51
2013-9-17,-200,0,200,-100,-100,-100,0,0,100,30.05,29.93,0,-999,0,0.00
2013-9-18,-200,0,200,-100,-100,-100,0,0,100,30.03,29.93,0,-999,0,0.00
2013-9-19,88,33,79,75,-32,-100,85,29,68,30.02,29.94,8,-600,13,0.32
2013-9-20,86,82,78,73,70,67,82,67,56,30.01,29.91,9,5,13,0.00
2013-9-21,86,82,79,74,72,70,77,70,63,29.93,29.79,5,3,8,0.00
2013-9-22,91,83,77,77,75,73,92,79,60,29.88,29.77,8,3,16,0.18
2013-9-23,89,80,75,78,76,72,96,87,66,29.99,29.87,12,1,13,0.51
2013-9-24,92,81,75,81,76,71,96,84,57,29.98,29.88,10,3,15,0.06
2013-9-25,89,80,74,79,74,70,89,80,61,29.93,29.82,8,2,11,0.01
2013-9-26,88,80,76,79,76,73,95,87,72,29.88,29.81,12,3,13,0.93
2013-9-27,88,80,75,76,73,68,94,79,54,29.93,29.83,10,4,15,0.00
2013-9-28,86,80,73,75,72,70,94,79,65,29.97,29.88,10,4,15,0.29
2013-9-29,85,82,78,72,70,68,78,67,58,29.98,29.89,7,4,10,0.00
2013-9-30,86,82,77,73,70,68,80,68,57,30.02,29.92,6,3,10,0.00